Time,TemperatureF,DewpointF,PressureIn,WindDirection,WindDirectionDegrees,WindSpeedMPH,WindSpeedGustMPH,Humidity,HourlyPrecipIn,Conditions,Clouds,dailyrainin,SoftwareType,DateUTC
2013-01-29 00:11:00,48.1,44.0,30.06,West,259,0.0,1.0,84,0.00,,,0.00,weatherlink.com 1.10,2013-01-29 05:11:00,
2013-01-29 00:26:00,48.2,44.0,30.06,West,259,0.0,1.0,84,0.00,,,0.00,weatherlink.com 1.10,2013-01-29 05:26:00,
2013-01-29 00:41:00,48.0,43.0,30.06,West,259,0.0,0.0,83,0.00,,,0.00,weatherlink.com 1.10,2013-01-29 05:41:00,
2013-01-29 00:56:00,47.4,43.0,30.05,West,259,0.0,0.0,83,0.00,,,0.00,weatherlink.com 1.10,2013-01-29 05:56:00,
2013-01-29 01:11:00,46.8,42.0,30.05,West,259,0.0,0.0,84,0.00,,,0.00,weatherlink.com 1.10,2013-01-29 06:11:00,
2013-01-29 01:26:00,45.9,42.0,30.06,West,259,0.0,0.0,85,0.00,,,0.00,weatherlink.com 1.10,2013-01-29 06:26:00,
2013-01-29 01:41:00,45.2,41.0,30.06,West,259,0.0,0.0,86,0.00,,,0.00,weatherlink.com 1.10,2013-01-29 06:41:00,
2013-01-29 01:56:00,44.6,41.0,30.06,West,259,0.0,0.0,87,0.00,,,0.00,weatherlink.com 1.10,2013-01-29 06:56:00,
2013-01-29 02:11:00,44.0,41.0,30.06,West,259,0.0,0.0,88,0.00,,,0.00,weatherlink.com 1.10,2013-01-29 07:11:00,
2013-01-29 02:26:00,43.5,41.0,30.06,West,259,0.0,0.0,89,0.00,,,0.00,weatherlink.com 1.10,2013-01-29 07:26:00,
2013-01-29 02:41:00,43.2,40.0,30.06,West,259,0.0,0.0,89,0.00,,,0.00,weatherlink.com 1.10,2013-01-29 07:41:00,
2013-01-29 02:56:00,42.9,40.0,30.06,West,259,0.0,0.0,90,0.00,,,0.00,weatherlink.com 1.10,2013-01-29 07:56:00,
2013-01-29 03:11:00,42.6,40.0,30.06,West,259,0.0,0.0,91,0.00,,,0.00,weatherlink.com 1.10,2013-01-29 08:11:00,
2013-01-29 03:26:00,42.3,40.0,30.06,West,259,0.0,0.0,90,0.00,,,0.00,weatherlink.com 1.10,2013-01-29 08:26:00,
2013-01-29 03:41:00,41.9,40.0,30.06,West,259,0.0,0.0,91,0.00,,,0.00,weatherlink.com 1.10,2013-01-29 08:41:00,
2013-01-29 03:56:00,41.6,39.0,30.06,West,259,0.0,0.0,91,0.00,,,0.00,weatherlink.com 1.10,2013-01-29 08:56:00,
2013-01-29 04:11:00,41.4,39.0,30.06,West,259,0.0,0.0,92,0.00,,,0.00,weatherlink.com 1.10,2013-01-29 09:11:00,
2013-01-29 04:26:00,41.4,39.0,30.06,West,259,0.0,0.0,92,0.00,,,0.00,weatherlink.com 1.10,2013-01-29 09:26:00,
2013-01-29 04:41:00,41.3,39.0,30.06,West,259,0.0,0.0,92,0.00,,,0.00,weatherlink.com 1.10,2013-01-29 09:41:00,
2013-01-29 04:56:00,41.1,39.0,30.06,West,259,0.0,0.0,92,0.00,,,0.00,weatherlink.com 1.10,2013-01-29 09:56:00,
2013-01-29 05:11:00,40.9,39.0,30.07,West,259,0.0,0.0,93,0.00,,,0.00,weatherlink.com 1.10,2013-01-29 10:11:00,
2013-01-29 05:26:00,40.9,39.0,30.07,West,259,0.0,2.0,93,0.00,,,0.00,weatherlink.com 1.10,2013-01-29 10:26:00,
2013-01-29 05:42:00,40.8,39.0,30.08,West,259,0.0,0.0,93,0.00,,,0.00,weatherlink.com 1.10,2013-01-29 10:42:00,
2013-01-29 05:57:00,40.7,39.0,30.08,West,259,0.0,0.0,93,0.00,,,0.00,weatherlink.com 1.10,2013-01-29 10:57:00,
2013-01-29 06:12:00,40.6,39.0,30.09,West,259,0.0,0.0,93,0.00,,,0.00,weatherlink.com 1.10,2013-01-29 11:12:00,
2013-01-29 06:27:00,40.6,39.0,30.09,West,259,0.0,0.0,93,0.00,,,0.00,weatherlink.com 1.10,2013-01-29 11:27:00,
2013-01-29 06:42:00,40.6,39.0,30.09,West,259,0.0,0.0,94,0.00,,,0.00,weatherlink.com 1.10,2013-01-29 11:42:00,
2013-01-29 06:57:00,40.6,39.0,30.09,West,259,0.0,0.0,94,0.00,,,0.00,weatherlink.com 1.10,2013-01-29 11:57:00,
2013-01-29 07:12:00,40.7,39.0,30.10,West,259,0.0,0.0,94,0.00,,,0.00,weatherlink.com 1.10,2013-01-29 12:12:00,
2013-01-29 07:27:00,40.9,39.0,30.10,West,259,0.0,0.0,94,0.00,,,0.00,weatherlink.com 1.10,2013-01-29 12:27:00,
2013-01-29 07:42:00,41.2,40.0,30.10,West,259,0.0,0.0,94,0.00,,,0.00,weatherlink.com 1.10,2013-01-29 12:42:00,
2013-01-29 07:57:00,41.6,40.0,30.11,West,259,0.0,0.0,95,0.00,,,0.00,weatherlink.com 1.10,2013-01-29 12:57:00,
2013-01-29 08:12:00,42.2,41.0,30.11,West,259,0.0,1.0,95,0.00,,,0.00,weatherlink.com 1.10,2013-01-29 13:12:00,
2013-01-29 08:27:00,42.8,42.0,30.11,West,259,0.0,0.0,95,0.00,,,0.00,weatherlink.com 1.10,2013-01-29 13:27:00,
2013-01-29 08:42:00,43.4,42.0,30.12,West,259,0.0,1.0,95,0.00,,,0.00,weatherlink.com 1.10,2013-01-29 13:42:00,
2013-01-29 08:57:00,44.1,43.0,30.11,West,259,1.0,1.0,95,0.00,,,0.00,weatherlink.com 1.10,2013-01-29 13:57:00,
2013-01-29 09:12:00,45.4,44.0,30.12,West,259,0.0,1.0,96,0.00,,,0.00,weatherlink.com 1.10,2013-01-29 14:12:00,
2013-01-29 09:27:00,46.6,45.0,30.13,West,259,0.0,1.0,93,0.00,,,0.00,weatherlink.com 1.10,2013-01-29 14:27:00,
2013-01-29 09:42:00,47.7,45.0,30.12,West,259,0.0,1.0,91,0.00,,,0.00,weatherlink.com 1.10,2013-01-29 14:42:00,
2013-01-29 09:57:00,48.9,46.0,30.13,WSW,257,0.0,2.0,89,0.00,,,0.00,weatherlink.com 1.10,2013-01-29 14:57:00,
2013-01-29 10:12:00,52.3,47.0,30.13,East,89,0.0,3.0,82,0.00,,,0.00,weatherlink.com 1.10,2013-01-29 15:12:00,
2013-01-29 10:27:00,53.2,47.0,30.14,ESE,114,1.0,3.0,79,0.00,,,0.00,weatherlink.com 1.10,2013-01-29 15:27:00,
2013-01-29 10:42:00,54.0,47.0,30.13,ESE,114,0.0,2.0,77,0.00,,,0.00,weatherlink.com 1.10,2013-01-29 15:42:00,
2013-01-29 11:24:00,56.4,48.0,30.11,East,87,0.0,2.0,73,0.00,,,0.00,weatherlink.com 1.10,2013-01-29 16:24:00,
2013-01-29 11:57:00,58.8,49.0,30.10,WNW,286,0.0,2.0,70,0.00,,,0.00,weatherlink.com 1.10,2013-01-29 16:57:00,
2013-01-29 12:12:00,60.0,50.0,30.09,West,281,1.0,2.0,70,0.00,,,0.00,weatherlink.com 1.10,2013-01-29 17:12:00,
2013-01-29 12:27:00,61.7,51.0,30.08,ESE,117,0.0,2.0,67,0.00,,,0.00,weatherlink.com 1.10,2013-01-29 17:27:00,
2013-01-29 12:43:00,62.9,51.0,30.07,SW,235,2.0,2.0,66,0.00,,,0.00,weatherlink.com 1.10,2013-01-29 17:43:00,
2013-01-29 12:58:00,63.6,52.0,30.06,SE,138,0.0,3.0,66,0.00,,,0.00,weatherlink.com 1.10,2013-01-29 17:58:00,
2013-01-29 13:13:00,64.8,53.0,30.05,SE,128,1.0,2.0,65,0.00,,,0.00,weatherlink.com 1.10,2013-01-29 18:13:00,
2013-01-29 13:28:00,65.2,53.0,30.04,SE,126,0.0,2.0,64,0.00,,,0.00,weatherlink.com 1.10,2013-01-29 18:28:00,
2013-01-29 13:43:00,66.7,53.0,30.04,West,266,2.0,2.0,61,0.00,,,0.00,weatherlink.com 1.10,2013-01-29 18:43:00,
2013-01-29 13:58:00,67.9,53.0,30.04,ESE,113,0.0,3.0,60,0.00,,,0.00,weatherlink.com 1.10,2013-01-29 18:58:00,
2013-01-29 14:13:00,68.4,53.0,30.03,SSE,161,2.0,3.0,59,0.00,,,0.00,weatherlink.com 1.10,2013-01-29 19:13:00,
2013-01-29 14:43:00,68.3,53.0,30.03,SE,142,0.0,3.0,59,0.00,,,0.00,weatherlink.com 1.10,2013-01-29 19:43:00,
2013-01-29 14:58:00,68.4,54.0,30.03,South,186,1.0,3.0,60,0.00,,,0.00,weatherlink.com 1.10,2013-01-29 19:58:00,
2013-01-29 15:13:00,68.8,53.0,30.03,South,180,0.0,3.0,58,0.00,,,0.00,weatherlink.com 1.10,2013-01-29 20:13:00,
2013-01-29 15:28:00,68.9,54.0,30.03,South,171,1.0,2.0,59,0.00,,,0.00,weatherlink.com 1.10,2013-01-29 20:28:00,
2013-01-29 15:43:00,69.0,54.0,30.03,SE,143,0.0,1.0,59,0.00,,,0.00,weatherlink.com 1.10,2013-01-29 20:43:00,
2013-01-29 15:58:00,69.2,53.0,30.03,West,281,0.0,2.0,57,0.00,,,0.00,weatherlink.com 1.10,2013-01-29 20:58:00,
2013-01-29 16:13:00,68.4,53.0,30.02,SSW,211,0.0,1.0,59,0.00,,,0.00,weatherlink.com 1.10,2013-01-29 21:13:00,
2013-01-29 16:28:00,67.0,53.0,30.02,South,190,0.0,3.0,61,0.00,,,0.00,weatherlink.com 1.10,2013-01-29 21:28:00,
2013-01-29 16:43:00,66.7,53.0,30.02,South,189,0.0,2.0,62,0.00,,,0.00,weatherlink.com 1.10,2013-01-29 21:43:00,
2013-01-29 16:58:00,66.0,53.0,30.02,South,188,2.0,3.0,63,0.00,,,0.00,weatherlink.com 1.10,2013-01-29 21:58:00,
2013-01-29 17:13:00,65.2,53.0,30.02,South,189,0.0,1.0,64,0.00,,,0.00,weatherlink.com 1.10,2013-01-29 22:13:00,
2013-01-29 17:28:00,64.9,52.0,30.02,South,188,0.0,1.0,64,0.00,,,0.00,weatherlink.com 1.10,2013-01-29 22:28:00,
2013-01-29 17:43:00,64.1,52.0,30.02,South,189,0.0,1.0,66,0.00,,,0.00,weatherlink.com 1.10,2013-01-29 22:43:00,
2013-01-29 17:58:00,63.4,53.0,30.02,South,188,0.0,1.0,68,0.00,,,0.00,weatherlink.com 1.10,2013-01-29 22:58:00,
2013-01-29 18:13:00,62.7,52.0,30.01,South,188,0.0,0.0,68,0.00,,,0.00,weatherlink.com 1.10,2013-01-29 23:13:00,
2013-01-29 18:28:00,61.9,52.0,30.01,South,188,0.0,1.0,70,0.00,,,0.00,weatherlink.com 1.10,2013-01-29 23:28:00,
2013-01-29 18:43:00,61.4,52.0,30.02,South,188,0.0,1.0,71,0.00,,,0.00,weatherlink.com 1.10,2013-01-29 23:43:00,
2013-01-29 18:58:00,61.0,52.0,30.01,South,189,0.0,1.0,72,0.00,,,0.00,weatherlink.com 1.10,2013-01-29 23:58:00,
2013-01-29 19:13:00,60.5,52.0,30.01,South,188,0.0,1.0,73,0.00,,,0.00,weatherlink.com 1.10,2013-01-30 00:13:00,
2013-01-29 19:28:00,59.9,51.0,30.02,South,188,0.0,0.0,73,0.00,,,0.00,weatherlink.com 1.10,2013-01-30 00:28:00,
2013-01-29 19:43:00,59.4,51.0,30.02,South,188,0.0,0.0,74,0.00,,,0.00,weatherlink.com 1.10,2013-01-30 00:43:00,
2013-01-29 19:58:00,58.8,51.0,30.02,South,188,0.0,0.0,75,0.00,,,0.00,weatherlink.com 1.10,2013-01-30 00:58:00,
2013-01-29 20:13:00,58.2,51.0,30.02,South,188,0.0,1.0,77,0.00,,,0.00,weatherlink.com 1.10,2013-01-30 01:13:00,
2013-01-29 20:28:00,57.5,51.0,30.02,South,188,0.0,0.0,78,0.00,,,0.00,weatherlink.com 1.10,2013-01-30 01:28:00,
2013-01-29 20:43:00,57.0,51.0,30.02,South,188,0.0,0.0,79,0.00,,,0.00,weatherlink.com 1.10,2013-01-30 01:43:00,
2013-01-29 20:58:00,56.5,50.0,30.02,South,188,0.0,0.0,80,0.00,,,0.00,weatherlink.com 1.10,2013-01-30 01:58:00,
2013-01-29 21:13:00,56.0,50.0,30.02,South,188,0.0,0.0,81,0.00,,,0.00,weatherlink.com 1.10,2013-01-30 02:13:00,
2013-01-29 21:28:00,55.6,50.0,30.02,South,188,0.0,0.0,82,0.00,,,0.00,weatherlink.com 1.10,2013-01-30 02:28:00,
2013-01-29 21:43:00,55.3,50.0,30.02,South,188,0.0,0.0,83,0.00,,,0.00,weatherlink.com 1.10,2013-01-30 02:43:00,
2013-01-29 21:58:00,54.8,50.0,30.02,South,188,0.0,0.0,83,0.00,,,0.00,weatherlink.com 1.10,2013-01-30 02:58:00,
2013-01-29 22:13:00,54.3,49.0,30.01,South,189,0.0,0.0,83,0.00,,,0.00,weatherlink.com 1.10,2013-01-30 03:13:00,
2013-01-29 22:28:00,53.7,49.0,30.01,South,188,0.0,0.0,83,0.00,,,0.00,weatherlink.com 1.10,2013-01-30 03:28:00,
2013-01-29 22:43:00,53.3,49.0,30.00,South,188,0.0,0.0,84,0.00,,,0.00,weatherlink.com 1.10,2013-01-30 03:43:00,
2013-01-29 22:58:00,52.2,48.0,30.01,South,188,0.0,0.0,86,0.00,,,0.00,weatherlink.com 1.10,2013-01-30 03:58:00,
2013-01-29 23:13:00,51.8,48.0,30.00,South,188,0.0,0.0,86,0.00,,,0.00,weatherlink.com 1.10,2013-01-30 04:13:00,
2013-01-29 23:28:00,51.4,47.0,29.99,South,188,0.0,0.0,86,0.00,,,0.00,weatherlink.com 1.10,2013-01-30 04:28:00,
2013-01-29 23:43:00,51.0,47.0,29.99,South,188,0.0,0.0,87,0.00,,,0.00,weatherlink.com 1.10,2013-01-30 04:43:00,
2013-01-29 23:58:00,50.8,47.0,29.98,South,188,0.0,0.0,88,0.00,,,0.00,weatherlink.com 1.10,2013-01-30 04:58:00,